createdAt,value
2022-10-22T00:00:18.104Z,99792.58
2022-10-22T00:01:17.974Z,99789.94
2022-10-22T00:02:18.038Z,99790.75
2022-10-22T00:03:18.043Z,99789.67
2022-10-22T00:04:18.003Z,99792.06
2022-10-22T00:05:18.239Z,99785.31
2022-10-22T00:06:18.043Z,99784.11
2022-10-22T00:07:18.576Z,99784.58
2022-10-22T00:08:18.308Z,99782.27
2022-10-22T00:09:18.167Z,99780.64
2022-10-22T00:10:18.282Z,99784.14
2022-10-22T00:11:19.095Z,99781.58
2022-10-22T00:12:18.184Z,99783.67
2022-10-22T00:13:18.727Z,99781.44
2022-10-22T00:14:20.455Z,99777.98
2022-10-22T00:15:18.616Z,99778.98
2022-10-22T00:16:18.351Z,99781.09
2022-10-22T00:17:18.420Z,99778.12
2022-10-22T00:18:18.215Z,99774.55
2022-10-22T00:19:18.413Z,99773.12
2022-10-22T00:20:18.455Z,99768.37
2022-10-22T00:21:18.268Z,99773.12
2022-10-22T00:22:18.293Z,99771.52
2022-10-22T00:23:18.305Z,99771.12
2022-10-22T00:24:18.539Z,99765.22
2022-10-22T00:25:18.330Z,99769.66
2022-10-22T00:26:18.475Z,99763.68
2022-10-22T00:27:18.600Z,99758.92
2022-10-22T00:28:18.391Z,99764.75
2022-10-22T00:29:18.394Z,99760.19
2022-10-22T00:30:18.495Z,99760.74
2022-10-22T00:31:18.420Z,99758.8
2022-10-22T00:32:18.448Z,99764.02
2022-10-22T00:33:18.498Z,99762.03
2022-10-22T00:34:19.604Z,99760.8
2022-10-22T00:35:18.905Z,99755.89
2022-10-22T00:36:18.489Z,99752.05
2022-10-22T00:37:18.529Z,99754.36
2022-10-22T00:38:18.772Z,99751.3
2022-10-22T00:39:19.581Z,99750.28
2022-10-22T00:40:18.840Z,99746.51
2022-10-22T00:41:18.644Z,99744.03
2022-10-22T00:42:20.662Z,99742.3
2022-10-22T00:43:19.709Z,99741.92
2022-10-22T00:45:24.681Z,99740.53
2022-10-22T00:46:23.661Z,99741.77
2022-10-22T00:47:25.083Z,99740.09
2022-10-22T00:48:27.948Z,99734.77
2022-10-22T00:49:24.573Z,99737.94
2022-10-22T00:50:28.279Z,99736.41
2022-10-22T00:51:27.390Z,99734.08
2022-10-22T00:52:25.411Z,99731.98
2022-10-22T00:54:26.035Z,99725.77
2022-10-22T00:55:27.902Z,99727.3
2022-10-22T00:56:26.165Z,99724.38
2022-10-22T00:57:26.276Z,99720.22
2022-10-22T00:58:27.667Z,99724.16
2022-10-22T00:59:26.300Z,99719.13
2022-10-22T01:00:26.299Z,99721.41
2022-10-22T01:01:27.942Z,99721.48
2022-10-22T01:02:26.339Z,99722.39
2022-10-22T01:03:26.161Z,99723.2
2022-10-22T01:04:26.309Z,99718.12
2022-10-22T01:05:27.464Z,99720.55
2022-10-22T01:06:28.184Z,99718.45
2022-10-22T01:07:26.403Z,99721.47
2022-10-22T01:13:49.946Z,99716.67
2022-10-22T01:30:29.199Z,99703.95
2022-10-22T01:32:33.366Z,99702.02
2022-10-22T01:33:31.050Z,99700.27
2022-10-22T01:34:31.887Z,99702.84
2022-10-22T01:35:38.822Z,99703.22
2022-10-22T01:36:35.736Z,99701.01
2022-10-22T01:37:38.560Z,99704.77
2022-10-22T01:38:36.173Z,99702.68
2022-10-22T01:39:36.600Z,99698.28
2022-10-22T01:40:36.275Z,99696.27
2022-10-22T01:41:35.494Z,99695.17
2022-10-22T01:42:35.140Z,99697.7
2022-10-22T01:43:35.131Z,99695.75
2022-10-22T01:45:40.052Z,99695.27
2022-10-22T01:46:37.083Z,99699.8
2022-10-22T01:47:43.463Z,99694.23
2022-10-22T02:00:08.294Z,99697.61
2022-10-22T02:01:11.253Z,99692.21
2022-10-22T02:03:21.305Z,99696.15
2022-10-22T02:04:28.565Z,99698.36
2022-10-22T02:05:24.496Z,99694.88
2022-10-22T02:06:22.214Z,99702.89
2022-10-22T02:07:22.746Z,99699.99
2022-10-22T02:08:23.431Z,99697.81
2022-10-22T02:09:22.773Z,99698.27
2022-10-22T02:10:21.958Z,99698.8
2022-10-22T02:11:21.177Z,99697.12
2022-10-22T02:12:23.634Z,99693.74
2022-10-22T02:13:24.621Z,99696.62
2022-10-22T02:14:21.788Z,99697.63
2022-10-22T02:15:23.550Z,99694.08
2022-10-22T02:16:31.438Z,99691.02
2022-10-22T02:17:26.204Z,99695.12
2022-10-22T02:18:26.989Z,99691.62
2022-10-22T02:19:27.983Z,99693.33
2022-10-22T02:20:29.280Z,99686.67
2022-10-22T02:21:26.950Z,99685.48
2022-10-22T02:22:27.149Z,99685.04
2022-10-22T02:23:26.200Z,99686.3
2022-10-22T02:24:27.138Z,99689.27
2022-10-22T02:25:29.099Z,99680.65
2022-10-22T02:26:31.186Z,99684.17
2022-10-22T02:27:30.675Z,99682.95
2022-10-22T02:28:39.428Z,99680.97
2022-10-22T02:29:36.777Z,99683.19
2022-10-22T02:30:35.915Z,99682.01
2022-10-22T02:31:37.352Z,99683.34
2022-10-22T02:32:38.737Z,99684.66
2022-10-22T02:33:38.605Z,99683.14
2022-10-22T02:34:35.612Z,99682.21
2022-10-22T02:35:36.431Z,99680.65
2022-10-22T02:36:37.394Z,99682.22
2022-10-22T02:37:36.356Z,99680.39
2022-10-22T02:38:36.067Z,99678.75
2022-10-22T02:39:35.927Z,99675.03
2022-10-22T02:40:36.169Z,99676.91
2022-10-22T02:41:37.222Z,99676.47
2022-10-22T02:42:37.564Z,99677.05
2022-10-22T02:43:42.286Z,99673.47
2022-10-22T02:44:38.883Z,99674.59
2022-10-22T02:45:38.910Z,99670.64
2022-10-22T02:46:40.010Z,99674.82
2022-10-22T02:47:39.123Z,99673.57
2022-10-22T02:48:38.957Z,99671.61
2022-10-22T02:49:39.002Z,99671.77
2022-10-22T02:50:39.066Z,99675.88
2022-10-22T02:51:39.036Z,99671.66
2022-10-22T02:52:39.586Z,99674.81
2022-10-22T02:53:39.118Z,99669.86
2022-10-22T02:54:39.073Z,99675.02
2022-10-22T02:55:39.336Z,99670.36
2022-10-22T02:56:39.374Z,99678.03
2022-10-22T02:57:39.340Z,99675.16
2022-10-22T02:58:39.240Z,99674.88
2022-10-22T02:59:39.186Z,99674.77
2022-10-22T03:00:39.614Z,99672.91
2022-10-22T03:01:39.114Z,99676.07
2022-10-22T03:02:39.219Z,99677.72
2022-10-22T03:03:39.906Z,99678.25
2022-10-22T03:04:39.885Z,99674.94
2022-10-22T03:05:40.041Z,99675.01
2022-10-22T03:06:39.954Z,99676.27
2022-10-22T03:07:40.176Z,99679.81
2022-10-22T03:08:40.528Z,99675.73
2022-10-22T03:09:40.009Z,99675.64
2022-10-22T03:10:40.266Z,99669.14
2022-10-22T03:11:40.076Z,99674.44
2022-10-22T03:12:40.454Z,99674.22
2022-10-22T03:13:40.055Z,99671.34
2022-10-22T03:14:40.023Z,99675.53
2022-10-22T03:15:40.088Z,99676.36
2022-10-22T03:16:40.074Z,99674.41
2022-10-22T03:17:40.670Z,99681.27
2022-10-22T03:18:40.101Z,99676.6
2022-10-22T03:19:40.369Z,99678.8
2022-10-22T03:20:40.185Z,99680.42
2022-10-22T03:21:50.213Z,99678.17
2022-10-22T03:22:42.404Z,99678.34
2022-10-22T03:23:42.630Z,99677.77
2022-10-22T03:24:43.557Z,99677.78
2022-10-22T03:25:43.121Z,99675.15
2022-10-22T03:26:43.597Z,99679.12
2022-10-22T03:27:42.875Z,99677.22
2022-10-22T03:28:42.561Z,99680.06
2022-10-22T03:29:42.597Z,99680.41
2022-10-22T03:30:41.951Z,99675.77
2022-10-22T03:31:42.186Z,99676.95
2022-10-22T03:32:42.010Z,99678.38
2022-10-22T03:33:41.990Z,99675.87
2022-10-22T03:34:42.068Z,99676.83
2022-10-22T03:35:44.950Z,99678.59
2022-10-22T03:36:42.439Z,99677.03
2022-10-22T03:37:42.714Z,99670.17
2022-10-22T03:38:42.200Z,99672.48
2022-10-22T03:39:42.448Z,99674.48
2022-10-22T03:40:42.950Z,99669.72
2022-10-22T03:41:42.561Z,99667.7
2022-10-22T03:42:42.565Z,99667.82
2022-10-22T03:43:42.218Z,99668.66
2022-10-22T03:44:42.462Z,99670.52
2022-10-22T03:45:42.254Z,99661.22
2022-10-22T03:46:42.221Z,99662.6
2022-10-22T03:47:42.680Z,99665.77
2022-10-22T03:48:42.249Z,99666.15
2022-10-22T03:49:42.254Z,99662.11
2022-10-22T03:50:42.219Z,99661.31
2022-10-22T03:51:42.513Z,99659.94
2022-10-22T03:52:42.328Z,99661.78
2022-10-22T03:53:42.511Z,99662.5
2022-10-22T03:54:42.764Z,99658.58
2022-10-22T03:55:42.395Z,99658.96
2022-10-22T03:56:42.536Z,99657.1
2022-10-22T03:57:42.681Z,99653.62
2022-10-22T03:58:42.554Z,99654.9
2022-10-22T03:59:43.927Z,99651.56
2022-10-22T04:00:42.986Z,99656.27
2022-10-22T04:01:43.154Z,99653.17
2022-10-22T04:02:42.963Z,99650.48
2022-10-22T04:03:42.990Z,99647.96
2022-10-22T04:04:42.980Z,99650.22
2022-10-22T04:05:42.988Z,99653.62
2022-10-22T04:06:43.003Z,99654.03
2022-10-22T04:07:43.319Z,99654.88
2022-10-22T04:08:44.101Z,99654.73
2022-10-22T04:09:43.056Z,99647.68
2022-10-22T04:10:50.244Z,99650.97
2022-10-22T04:11:46.878Z,99652
2022-10-22T04:12:47.613Z,99647.97
2022-10-22T04:13:46.878Z,99646.83
2022-10-22T04:14:47.477Z,99646.34
2022-10-22T04:15:46.922Z,99649.52
2022-10-22T04:16:46.946Z,99646.48
2022-10-22T04:17:47.420Z,99645.5
2022-10-22T04:18:47.821Z,99645.57
2022-10-22T04:19:46.964Z,99645.45
2022-10-22T04:20:46.983Z,99643.15
2022-10-22T04:21:46.971Z,99643.56
2022-10-22T04:22:47.073Z,99643.33
2022-10-22T04:23:48.040Z,99645.31
2022-10-22T04:24:47.104Z,99643.27
2022-10-22T04:25:47.075Z,99638.91
2022-10-22T04:26:47.097Z,99644
2022-10-22T04:27:47.162Z,99640.8
2022-10-22T04:28:48.256Z,99641.42
2022-10-22T04:29:47.370Z,99642.85
2022-10-22T04:30:47.356Z,99642.8
2022-10-22T04:31:47.415Z,99637.43
2022-10-22T04:32:47.173Z,99635
2022-10-22T04:33:47.600Z,99632.45
2022-10-22T04:34:47.250Z,99633.62
2022-10-22T04:35:47.276Z,99633.73
2022-10-22T04:36:47.327Z,99630.06
2022-10-22T04:37:47.257Z,99635.77
2022-10-22T04:38:51.510Z,99634.02
2022-10-22T04:39:48.161Z,99633.59
2022-10-22T04:40:48.134Z,99634.46
2022-10-22T04:41:48.120Z,99627.19
2022-10-22T04:42:48.200Z,99630.57
2022-10-22T04:43:48.610Z,99630.68
2022-10-22T04:44:48.243Z,99627.63
2022-10-22T04:45:48.298Z,99628.31
2022-10-22T04:46:48.208Z,99629
2022-10-22T04:47:48.522Z,99629.41
2022-10-22T04:48:48.335Z,99628.91
2022-10-22T04:49:48.565Z,99631.97
2022-10-22T04:50:48.335Z,99628.94
2022-10-22T04:51:48.392Z,99630.24
2022-10-22T04:52:48.362Z,99629.27
2022-10-22T04:53:48.748Z,99626.38
2022-10-22T04:54:48.399Z,99622.69
2022-10-22T04:55:48.455Z,99622.43
2022-10-22T04:56:48.435Z,99621.52
2022-10-22T04:57:48.577Z,99618.36
2022-10-22T04:58:49.211Z,99620.27
2022-10-22T04:59:48.475Z,99617.33
2022-10-22T05:00:48.559Z,99617.58
2022-10-22T05:01:48.490Z,99614.66
2022-10-22T05:02:49.024Z,99617.8
2022-10-22T05:03:49.337Z,99614.14
2022-10-22T05:04:48.730Z,99614.77
2022-10-22T05:05:48.532Z,99618.12
2022-10-22T05:06:48.745Z,99619.56
2022-10-22T05:07:50.519Z,99622.89
2022-10-22T05:08:51.940Z,99618.4
2022-10-22T05:09:48.969Z,99619.31
2022-10-22T05:10:48.643Z,99618.58
2022-10-22T05:11:49.819Z,99617.98
2022-10-22T05:12:48.770Z,99619.36
2022-10-22T05:13:49.210Z,99624.52
2022-10-22T05:14:48.646Z,99619.68
2022-10-22T05:15:48.744Z,99624.94
2022-10-22T05:16:49.422Z,99622.75
2022-10-22T05:17:48.939Z,99620.58
2022-10-22T05:18:48.720Z,99620.52
2022-10-22T05:19:48.708Z,99620.19
2022-10-22T05:20:48.705Z,99620.29
2022-10-22T05:21:48.811Z,99618.83
2022-10-22T05:22:48.745Z,99618.21
2022-10-22T05:23:49.920Z,99620.78
2022-10-22T05:24:48.793Z,99619.91
2022-10-22T05:25:48.789Z,99620.36
2022-10-22T05:26:52.715Z,99624.2
2022-10-22T05:27:49.617Z,99621.86
2022-10-22T05:28:49.632Z,99621.67
2022-10-22T05:29:49.358Z,99623.41
2022-10-22T05:30:52.821Z,99618.33
2022-10-22T05:31:49.860Z,99618.05
2022-10-22T05:32:49.506Z,99616.25
2022-10-22T05:33:49.491Z,99617.8
2022-10-22T05:34:49.468Z,99616.3
2022-10-22T05:35:50.269Z,99617.68
2022-10-22T05:36:49.664Z,99615.64
2022-10-22T05:37:49.563Z,99619.59
2022-10-22T05:38:49.947Z,99618.35
2022-10-22T05:39:57.569Z,99619.48
2022-10-22T05:41:54.557Z,99619.45
2022-10-22T05:42:54.564Z,99616.09
2022-10-22T05:43:55.288Z,99624.54
2022-10-22T05:44:54.621Z,99621.36
2022-10-22T05:45:54.633Z,99618.97
2022-10-22T05:46:54.650Z,99619.51
2022-10-22T05:47:54.670Z,99615.42
2022-10-22T05:48:56.267Z,99617.56
2022-10-22T05:49:54.681Z,99616.38
2022-10-22T05:50:54.686Z,99616.02
2022-10-22T05:51:54.740Z,99612.15
2022-10-22T05:52:54.746Z,99613.26
2022-10-22T05:53:55.822Z,99617.65
2022-10-22T05:54:54.769Z,99614.12
2022-10-22T05:55:54.767Z,99617.06
2022-10-22T05:56:54.788Z,99611.95
2022-10-22T05:57:54.786Z,99614.78
2022-10-22T05:58:55.191Z,99612.22
2022-10-22T05:59:54.846Z,99609.9
2022-10-22T06:00:54.873Z,99611.22
2022-10-22T06:01:54.884Z,99610.02
2022-10-22T06:02:54.842Z,99608.02
2022-10-22T06:03:55.894Z,99609.77
2022-10-22T06:04:54.897Z,99610.11
2022-10-22T06:05:54.900Z,99607.56
2022-10-22T06:06:54.942Z,99610.95
2022-10-22T06:07:55.751Z,99609.16
2022-10-22T06:08:55.953Z,99609.53
2022-10-22T06:09:55.052Z,99607.65
2022-10-22T06:10:55.007Z,99608.76
2022-10-22T06:11:56.459Z,99606.8
2022-10-22T06:12:55.464Z,99603.39
2022-10-22T06:13:55.507Z,99604.41
2022-10-22T06:14:55.556Z,99603.75
2022-10-22T06:15:56.168Z,99605.36
2022-10-22T06:16:55.668Z,99607.42
2022-10-22T06:17:55.634Z,99603.98
2022-10-22T06:18:55.524Z,99600.53
2022-10-22T06:19:55.654Z,99604.09
2022-10-22T06:20:55.578Z,99604.83
2022-10-22T06:21:55.595Z,99602.27
2022-10-22T06:22:55.612Z,99607.53
2022-10-22T06:23:56.556Z,99606.48
2022-10-22T06:24:55.617Z,99607.86
2022-10-22T06:25:56.504Z,99607.66
2022-10-22T06:26:55.697Z,99605.14
2022-10-22T06:27:55.681Z,99606.4
2022-10-22T06:28:55.985Z,99603.41
2022-10-22T06:29:55.703Z,99605.43
2022-10-22T06:30:57.553Z,99604.45
2022-10-22T06:31:55.711Z,99607.16
2022-10-22T06:32:55.944Z,99608.66
2022-10-22T06:33:58.756Z,99609.65
2022-10-22T06:34:55.734Z,99607.31
2022-10-22T06:35:55.743Z,99605.27
2022-10-22T06:36:55.988Z,99606.67
2022-10-22T06:37:55.811Z,99607.16
2022-10-22T06:38:56.240Z,99607.17
2022-10-22T06:39:55.807Z,99605.98
2022-10-22T06:40:55.835Z,99610.75
2022-10-22T06:41:55.874Z,99610.34
2022-10-22T06:42:55.850Z,99607.39
2022-10-22T06:43:56.235Z,99606.91
2022-10-22T06:44:55.991Z,99605.3
2022-10-22T06:45:58.965Z,99609.64
2022-10-22T06:46:55.954Z,99601.36
2022-10-22T06:47:55.918Z,99606.95
2022-10-22T06:48:59.270Z,99606.88
2022-10-22T06:49:55.936Z,99606.58
2022-10-22T06:50:56.246Z,99607.06
2022-10-22T06:51:56.037Z,99605.8
2022-10-22T06:52:55.984Z,99603.95
2022-10-22T06:53:56.656Z,99604.88
2022-10-22T06:54:56.011Z,99607.22
2022-10-22T06:55:56.037Z,99608.23
2022-10-22T06:56:56.070Z,99607.08
2022-10-22T06:57:56.081Z,99607.09
2022-10-22T06:58:57.503Z,99607.2
2022-10-22T06:59:56.090Z,99604.8
2022-10-22T07:01:57.607Z,99601
2022-10-22T07:02:59.170Z,99605.44
2022-10-22T07:03:57.720Z,99602.36
2022-10-22T07:04:57.574Z,99597.12
2022-10-22T07:06:01.281Z,99599.78
2022-10-22T07:06:57.627Z,99597.31
2022-10-22T07:07:57.597Z,99599.43
2022-10-22T07:08:58.616Z,99597.05
2022-10-22T07:09:57.634Z,99593.32
2022-10-22T07:11:05.465Z,99593.91
2022-10-22T07:12:01.688Z,99594.81
2022-10-22T07:13:01.661Z,99591.97
2022-10-22T07:14:01.680Z,99593.88
2022-10-22T07:15:01.695Z,99591.23
2022-10-22T07:16:01.917Z,99591.47
2022-10-22T07:17:01.760Z,99586.3
2022-10-22T07:18:01.958Z,99592.86
2022-10-22T07:19:02.167Z,99589.87
2022-10-22T07:20:01.771Z,99593.11
2022-10-22T07:21:02.152Z,99588.99
2022-10-22T07:22:01.984Z,99587.92
2022-10-22T07:23:01.812Z,99588.73
2022-10-22T07:24:01.825Z,99585.5
2022-10-22T07:25:06.591Z,99584.47
2022-10-22T07:26:04.547Z,99585.2
2022-10-22T07:27:06.895Z,99581.68
2022-10-22T07:28:04.660Z,99585.52
2022-10-22T07:29:04.661Z,99579.82
2022-10-22T07:30:04.970Z,99579.16
2022-10-22T07:31:04.675Z,99576.38
2022-10-22T07:32:04.898Z,99583.66
2022-10-22T07:33:04.703Z,99577.55
2022-10-22T07:34:04.523Z,99576.22
2022-10-22T07:35:05.140Z,99574.59
2022-10-22T07:36:06.467Z,99574.56
2022-10-22T07:37:04.555Z,99573.47
2022-10-22T07:38:05.305Z,99575.02
2022-10-22T07:39:05.146Z,99571.31
2022-10-22T07:40:05.147Z,99571.48
2022-10-22T07:41:04.950Z,99574.26
2022-10-22T07:42:04.664Z,99571.02
2022-10-22T07:43:04.973Z,99566.81
2022-10-22T07:44:04.615Z,99567.24
2022-10-22T07:45:05.183Z,99568.27
2022-10-22T07:46:04.708Z,99570.57
2022-10-22T07:47:04.721Z,99563.35
2022-10-22T07:48:05.272Z,99564.21
2022-10-22T07:49:04.902Z,99561.67
2022-10-22T07:50:05.444Z,99566.02
2022-10-22T07:51:05.226Z,99564.91
2022-10-22T07:52:06.166Z,99568.33
2022-10-22T07:53:04.935Z,99561.66
2022-10-22T07:54:04.789Z,99560.84
2022-10-22T07:55:05.348Z,99566.31
2022-10-22T07:56:05.161Z,99558.14
2022-10-22T07:57:04.804Z,99557.08
2022-10-22T07:58:04.838Z,99561.39
2022-10-22T07:59:04.876Z,99561.98
2022-10-22T08:00:05.790Z,99565.66
2022-10-22T08:01:04.899Z,99554.97
2022-10-22T08:02:04.869Z,99555.88
2022-10-22T08:03:04.876Z,99553.05
2022-10-22T08:04:05.550Z,99551.37
2022-10-22T08:05:05.944Z,99551.43
2022-10-22T08:06:05.835Z,99550.1
2022-10-22T08:07:05.627Z,99548.87
2022-10-22T08:08:05.892Z,99551.78
2022-10-22T08:09:05.524Z,99547.56
2022-10-22T08:10:06.034Z,99544.97
2022-10-22T08:11:05.766Z,99543.13
2022-10-22T08:12:05.986Z,99542.19
2022-10-22T08:13:05.664Z,99540.92
2022-10-22T08:14:05.473Z,99542.14
2022-10-22T08:15:06.167Z,99544.62
2022-10-22T08:16:06.013Z,99542.73
2022-10-22T08:17:06.512Z,99536.41
2022-10-22T08:18:05.921Z,99537.35
2022-10-22T08:19:05.533Z,99539.27
2022-10-22T08:20:06.304Z,99537.73
2022-10-22T08:21:05.933Z,99536.66
2022-10-22T08:22:05.594Z,99539.88
2022-10-22T08:23:05.597Z,99533.36
2022-10-22T08:25:06.434Z,99535.05
2022-10-22T08:26:05.889Z,99533.86
2022-10-22T08:27:05.639Z,99532.66
2022-10-22T08:28:05.666Z,99534.26
2022-10-22T08:29:05.680Z,99533.23
2022-10-22T08:30:06.227Z,99534.55
2022-10-22T08:31:11.112Z,99531.23
2022-10-22T08:32:07.302Z,99530.45
2022-10-22T08:33:07.319Z,99525.57
2022-10-22T08:34:07.572Z,99527.2
2022-10-22T08:35:07.360Z,99526.65
2022-10-22T08:36:08.190Z,99524.52
2022-10-22T08:37:07.384Z,99526.25
2022-10-22T08:38:07.421Z,99523.56
2022-10-22T08:39:07.405Z,99518.86
2022-10-22T08:40:07.832Z,99519.84
2022-10-22T08:41:09.888Z,99519.59
2022-10-22T08:45:35.893Z,99514.02
2022-10-22T08:47:32.920Z,99510.98
2022-10-22T08:49:29.761Z,99510.26
2022-10-22T08:51:31.240Z,99509.34
2022-10-22T08:52:28.766Z,99509.62
2022-10-22T08:55:37.482Z,99506.16
2022-10-22T08:56:36.704Z,99508.98
2022-10-22T08:59:46.457Z,99505.65
2022-10-22T09:01:49.014Z,99504.41
2022-10-22T09:06:58.064Z,99502.56
2022-10-22T09:07:56.766Z,99498.72
2022-10-22T09:08:57.324Z,99496.57
2022-10-22T09:09:59.323Z,99499.37
2022-10-22T09:11:03.405Z,99489.64
2022-10-22T09:12:00.439Z,99493.1
2022-10-22T09:13:00.040Z,99493.78
2022-10-22T09:14:01.250Z,99491.3
2022-10-22T09:15:00.066Z,99487.23
2022-10-22T09:20:15.671Z,99489.64
2022-10-22T09:21:19.060Z,99488.75
2022-10-22T09:22:24.919Z,99490.39
2022-10-22T09:24:32.955Z,99488.78
2022-10-22T09:25:25.669Z,99483.16
2022-10-22T09:26:22.332Z,99487.98
2022-10-22T09:27:26.857Z,99475.33
2022-10-22T09:28:23.699Z,99478.5
2022-10-22T09:29:24.785Z,99478.8
2022-10-22T09:30:24.872Z,99475.55
2022-10-22T09:31:26.933Z,99476.69
2022-10-22T09:32:23.839Z,99468.66
2022-10-22T09:33:27.946Z,99473.91
2022-10-22T09:34:24.589Z,99472.47
2022-10-22T09:35:24.629Z,99473.83
2022-10-22T09:36:24.774Z,99470.45
2022-10-22T09:37:27.889Z,99466.47
2022-10-22T09:38:26.529Z,99468.46
2022-10-22T09:39:29.309Z,99464.72
2022-10-22T09:40:25.970Z,99458.67
2022-10-22T09:41:27.783Z,99459.62
2022-10-22T09:42:26.154Z,99464.02
2022-10-22T09:43:26.128Z,99457.95
2022-10-22T09:44:26.108Z,99455.17
2022-10-22T09:45:26.175Z,99450.61
2022-10-22T09:46:29.556Z,99453.19
2022-10-22T09:49:32.733Z,99452.86
2022-10-22T09:52:34.203Z,99446.8
2022-10-22T09:53:36.422Z,99445.48
2022-10-22T09:55:33.736Z,99446.23
2022-10-22T09:56:39.957Z,99450.05
2022-10-22T09:57:37.895Z,99448.51
2022-10-22T09:58:42.909Z,99447.17
2022-10-22T09:59:40.090Z,99449.03
2022-10-22T10:00:44.513Z,99455.68
2022-10-22T10:01:40.721Z,99451.67
2022-10-22T10:02:40.922Z,99449.59
2022-10-22T10:03:40.729Z,99452.01
2022-10-22T10:04:42.329Z,99452.48
2022-10-22T10:05:40.743Z,99446.72
2022-10-22T10:06:42.336Z,99449.05
2022-10-22T10:07:41.165Z,99447.84
2022-10-22T10:08:40.866Z,99454.14
2022-10-22T10:09:40.854Z,99448.98
2022-10-22T10:10:48.541Z,99450.8
2022-10-22T10:14:57.891Z,99446.2
2022-10-22T10:15:56.167Z,99448.58
2022-10-22T10:16:59.997Z,99450.09
2022-10-22T10:18:04.779Z,99446.52
2022-10-22T10:24:26.013Z,99434.62
2022-10-22T10:25:19.971Z,99435.58
2022-10-22T10:27:22.160Z,99432.29
2022-10-22T10:30:24.677Z,99433.38
2022-10-22T10:35:36.762Z,99423.34
2022-10-22T10:37:41.739Z,99426.98
2022-10-22T10:45:07.952Z,99411.03
2022-10-22T10:50:21.599Z,99406.48
2022-10-22T10:54:33.599Z,99400.84
2022-10-22T10:55:32.283Z,99400.48
2022-10-22T10:56:39.289Z,99401.89
2022-10-22T11:05:57.444Z,99386.14
2022-10-22T11:07:10.734Z,99382.27
2022-10-22T11:08:03.691Z,99383.58
2022-10-22T11:09:07.128Z,99384.09
2022-10-22T11:10:09.488Z,99381.36
2022-10-22T11:11:18.557Z,99384.21
2022-10-22T11:12:14.857Z,99378.66
2022-10-22T11:17:22.908Z,99368.67
2022-10-22T11:18:28.688Z,99368.48
2022-10-22T11:19:49.851Z,99360.07
2022-10-22T11:21:32.299Z,99360.13
2022-10-22T11:22:32.168Z,99359.2
2022-10-22T11:25:38.290Z,99357.75
2022-10-22T11:28:40.289Z,99347.39
2022-10-22T11:29:45.908Z,99349.2
2022-10-22T11:30:38.890Z,99348.72
2022-10-22T11:31:37.542Z,99340.59
2022-10-22T11:32:38.236Z,99344.38
2022-10-22T11:34:44.978Z,99338.29
2022-10-22T11:35:43.570Z,99341.15
2022-10-22T11:36:41.875Z,99338.73
2022-10-22T11:37:44.085Z,99344.36
2022-10-22T11:38:41.501Z,99339.8
2022-10-22T11:41:45.012Z,99334.46
2022-10-22T11:42:47.752Z,99341.73
2022-10-22T11:45:57.421Z,99331.94
2022-10-22T11:46:55.928Z,99336.91
2022-10-22T11:51:02.962Z,99331.94
2022-10-22T11:53:05.459Z,99330.59
2022-10-22T11:56:22.286Z,99331.82
2022-10-22T11:57:21.096Z,99328.62
2022-10-22T12:01:29.419Z,99323.56
2022-10-22T12:02:32.177Z,99320.19
2022-10-22T12:05:34.513Z,99318.85
2022-10-22T12:09:42.045Z,99312.8
2022-10-22T12:11:47.922Z,99307.89
2022-10-22T12:12:55.487Z,99310.59
2022-10-22T12:14:59.391Z,99313.03
2022-10-22T12:15:53.088Z,99302.27
2022-10-22T12:17:56.711Z,99299.52
2022-10-22T12:20:02.021Z,99304.74
2022-10-22T12:20:58.962Z,99307.73
2022-10-22T12:22:59.506Z,99299.09
2022-10-22T12:24:00.577Z,99303.12
2022-10-22T12:25:00.658Z,99302.38
2022-10-22T12:25:59.615Z,99300.66
2022-10-22T12:26:59.507Z,99299.94
2022-10-22T12:27:59.826Z,99295.22
2022-10-22T12:29:00.472Z,99294.25
2022-10-22T12:30:00.716Z,99293.28
2022-10-22T12:30:59.587Z,99291.64
2022-10-22T12:32:03.031Z,99292.45
2022-10-22T12:33:00.497Z,99290.15
2022-10-22T12:34:00.080Z,99289.38
2022-10-22T12:35:03.381Z,99289.7
2022-10-22T12:35:59.987Z,99287.74
2022-10-22T12:37:04.202Z,99288.54
2022-10-22T12:38:02.957Z,99289.45
2022-10-22T12:39:01.661Z,99290.79
2022-10-22T12:40:00.849Z,99291.5
2022-10-22T12:41:00.916Z,99285.99
2022-10-22T12:42:00.887Z,99283.55
2022-10-22T12:43:02.264Z,99284.55
2022-10-22T12:44:01.779Z,99286.27
2022-10-22T12:45:00.940Z,99283.1
2022-10-22T12:46:01.030Z,99277.97
2022-10-22T12:47:00.940Z,99277.05
2022-10-22T12:48:02.909Z,99278.61
2022-10-22T12:49:11.128Z,99278.02
2022-10-22T12:50:03.563Z,99274.2
2022-10-22T12:51:04.608Z,99271.79
2022-10-22T12:52:09.811Z,99271.2
2022-10-22T12:53:13.013Z,99266.98
2022-10-22T12:54:09.259Z,99265.84
2022-10-22T12:55:06.370Z,99266.14
2022-10-22T12:56:07.610Z,99265.03
2022-10-22T12:57:06.567Z,99266.19
2022-10-22T12:58:06.797Z,99261.56
2022-10-22T12:59:11.853Z,99259.56
2022-10-22T13:00:19.919Z,99257.12
2022-10-22T13:01:12.442Z,99259.2
2022-10-22T13:02:19.408Z,99256.67
2022-10-22T13:06:24.314Z,99259.66
2022-10-22T13:07:22.306Z,99256.34
2022-10-22T13:08:22.172Z,99256.8
2022-10-22T13:09:25.163Z,99256.31
2022-10-22T13:10:25.513Z,99256.8
2022-10-22T13:11:23.884Z,99251.44
2022-10-22T13:12:25.518Z,99248.25
2022-10-22T13:16:29.594Z,99239.62
2022-10-22T13:17:40.379Z,99241.05
2022-10-22T13:18:32.972Z,99241.79
2022-10-22T13:20:34.577Z,99244.55
2022-10-22T13:21:37.768Z,99239.68
2022-10-22T13:22:38.302Z,99238.67
2022-10-22T13:23:34.916Z,99237.68
2022-10-22T13:24:34.926Z,99233.98
2022-10-22T13:25:36.270Z,99236.09
2022-10-22T13:26:36.476Z,99238.24
2022-10-22T13:27:43.104Z,99239.33
2022-10-22T13:28:40.642Z,99244.09
2022-10-22T13:29:41.300Z,99238.63
2022-10-22T13:30:51.523Z,99242.84
2022-10-22T13:31:46.745Z,99236.56
2022-10-22T13:32:49.125Z,99237.11
2022-10-22T13:33:50.285Z,99241.69
2022-10-22T13:34:46.930Z,99236.12
2022-10-22T13:35:46.955Z,99235.22
2022-10-22T13:36:47.708Z,99237.41
2022-10-22T13:37:46.988Z,99240.82
2022-10-22T13:38:49.550Z,99237.36
2022-10-22T13:39:47.000Z,99233.8
2022-10-22T13:40:47.606Z,99235.56
2022-10-22T13:41:47.124Z,99232.88
2022-10-22T13:42:47.233Z,99228.13
2022-10-22T13:43:47.240Z,99231.8
2022-10-22T13:44:47.304Z,99231.92
2022-10-22T13:45:48.693Z,99230.92
2022-10-22T13:46:48.185Z,99230.96
2022-10-22T13:47:51.784Z,99233.23
2022-10-22T13:48:49.400Z,99234.81
2022-10-22T13:49:48.724Z,99230.73
2022-10-22T13:50:49.230Z,99231.27
2022-10-22T13:51:49.243Z,99231.23
2022-10-22T13:52:55.382Z,99233.64
2022-10-22T13:53:53.338Z,99235.4
2022-10-22T13:54:52.218Z,99231.88
2022-10-22T13:55:52.456Z,99230.39
2022-10-22T13:56:52.144Z,99230.36
2022-10-22T13:57:53.171Z,99231.05
2022-10-22T13:58:52.121Z,99226.67
2022-10-22T13:59:52.191Z,99221.89
2022-10-22T14:00:59.423Z,99220.72
2022-10-22T14:01:56.160Z,99224.96
2022-10-22T14:02:58.230Z,99217.3
2022-10-22T14:03:57.351Z,99221.11
2022-10-22T14:04:56.503Z,99220.85
2022-10-22T14:05:56.712Z,99218.22
2022-10-22T14:06:58.761Z,99218.02
2022-10-22T14:08:00.920Z,99222.37
2022-10-22T14:08:59.379Z,99215.41
2022-10-22T14:09:58.116Z,99213.09
2022-10-22T14:10:57.994Z,99212.86
2022-10-22T14:11:58.067Z,99213.86
2022-10-22T14:12:58.006Z,99218.31
2022-10-22T14:13:58.705Z,99216
2022-10-22T14:15:58.108Z,99215.16
2022-10-22T14:16:58.103Z,99210.89
2022-10-22T14:17:59.139Z,99212.45